sensor_id;sensor_type;location;lat;lon;timestamp;P1;durP1;ratioP1;P2;durP2;ratioP2
25381;SDS011;16307;42.896;20.874;2023-02-28T00:01:32;59.92;;;27.60;;
25381;SDS011;16307;42.896;20.874;2023-02-28T00:04:18;68.70;;;29.48;;
25381;SDS011;16307;42.896;20.874;2023-02-28T00:07:04;57.33;;;25.95;;
25381;SDS011;16307;42.896;20.874;2023-02-28T00:09:49;70.22;;;30.00;;
25381;SDS011;16307;42.896;20.874;2023-02-28T00:12:35;61.97;;;27.17;;
25381;SDS011;16307;42.896;20.874;2023-02-28T00:15:22;61.70;;;26.92;;
25381;SDS011;16307;42.896;20.874;2023-02-28T00:18:08;61.03;;;27.33;;
25381;SDS011;16307;42.896;20.874;2023-02-28T00:20:54;59.55;;;27.02;;
25381;SDS011;16307;42.896;20.874;2023-02-28T00:23:40;65.22;;;28.10;;
25381;SDS011;16307;42.896;20.874;2023-02-28T00:26:27;56.97;;;24.80;;
25381;SDS011;16307;42.896;20.874;2023-02-28T00:29:13;56.92;;;25.70;;
25381;SDS011;16307;42.896;20.874;2023-02-28T00:31:58;53.90;;;23.75;;
25381;SDS011;16307;42.896;20.874;2023-02-28T00:34:44;51.28;;;25.05;;
25381;SDS011;16307;42.896;20.874;2023-02-28T00:37:30;56.95;;;24.70;;
25381;SDS011;16307;42.896;20.874;2023-02-28T00:40:16;50.30;;;22.70;;
25381;SDS011;16307;42.896;20.874;2023-02-28T00:43:02;55.92;;;23.98;;
25381;SDS011;16307;42.896;20.874;2023-02-28T00:45:49;62.20;;;26.70;;
25381;SDS011;16307;42.896;20.874;2023-02-28T00:48:35;60.00;;;26.70;;
25381;SDS011;16307;42.896;20.874;2023-02-28T00:51:21;60.42;;;26.50;;
25381;SDS011;16307;42.896;20.874;2023-02-28T00:54:07;59.75;;;26.00;;
25381;SDS011;16307;42.896;20.874;2023-02-28T00:56:53;54.75;;;24.55;;
25381;SDS011;16307;42.896;20.874;2023-02-28T00:59:39;61.22;;;26.85;;
25381;SDS011;16307;42.896;20.874;2023-02-28T01:02:24;62.85;;;28.27;;
25381;SDS011;16307;42.896;20.874;2023-02-28T01:05:10;65.35;;;26.80;;
25381;SDS011;16307;42.896;20.874;2023-02-28T01:07:57;57.92;;;24.27;;
25381;SDS011;16307;42.896;20.874;2023-02-28T01:10:42;61.58;;;27.73;;
25381;SDS011;16307;42.896;20.874;2023-02-28T01:13:29;60.45;;;27.85;;
25381;SDS011;16307;42.896;20.874;2023-02-28T01:16:16;57.42;;;25.35;;
25381;SDS011;16307;42.896;20.874;2023-02-28T01:19:03;69.20;;;30.30;;
25381;SDS011;16307;42.896;20.874;2023-02-28T01:21:49;68.03;;;28.50;;
25381;SDS011;16307;42.896;20.874;2023-02-28T01:24:35;61.17;;;26.02;;
25381;SDS011;16307;42.896;20.874;2023-02-28T01:27:21;57.38;;;25.73;;
25381;SDS011;16307;42.896;20.874;2023-02-28T01:30:08;55.35;;;24.65;;
25381;SDS011;16307;42.896;20.874;2023-02-28T01:32:55;55.63;;;25.23;;
25381;SDS011;16307;42.896;20.874;2023-02-28T01:35:43;59.50;;;25.05;;
25381;SDS011;16307;42.896;20.874;2023-02-28T01:38:29;60.03;;;27.02;;
25381;SDS011;16307;42.896;20.874;2023-02-28T01:41:16;61.78;;;27.35;;
25381;SDS011;16307;42.896;20.874;2023-02-28T01:47:36;58.50;;;25.67;;
25381;SDS011;16307;42.896;20.874;2023-02-28T01:50:25;62.83;;;26.48;;
25381;SDS011;16307;42.896;20.874;2023-02-28T01:53:16;60.30;;;25.02;;
25381;SDS011;16307;42.896;20.874;2023-02-28T01:56:05;59.00;;;26.13;;
25381;SDS011;16307;42.896;20.874;2023-02-28T01:58:53;58.08;;;25.83;;
25381;SDS011;16307;42.896;20.874;2023-02-28T02:01:41;56.25;;;24.90;;
25381;SDS011;16307;42.896;20.874;2023-02-28T02:04:32;57.03;;;25.05;;
25381;SDS011;16307;42.896;20.874;2023-02-28T02:07:22;56.03;;;25.30;;
25381;SDS011;16307;42.896;20.874;2023-02-28T02:10:16;56.65;;;24.58;;
25381;SDS011;16307;42.896;20.874;2023-02-28T02:22:37;59.65;;;25.25;;
25381;SDS011;16307;42.896;20.874;2023-02-28T02:28:36;59.63;;;25.63;;
25381;SDS011;16307;42.896;20.874;2023-02-28T02:34:56;58.35;;;26.13;;
25381;SDS011;16307;42.896;20.874;2023-02-28T02:37:59;57.60;;;24.17;;
25381;SDS011;16307;42.896;20.874;2023-02-28T02:43:40;55.20;;;24.38;;
25381;SDS011;16307;42.896;20.874;2023-02-28T02:46:44;58.78;;;25.10;;
25381;SDS011;16307;42.896;20.874;2023-02-28T02:49:31;58.38;;;24.88;;
25381;SDS011;16307;42.896;20.874;2023-02-28T02:52:20;55.83;;;24.00;;
25381;SDS011;16307;42.896;20.874;2023-02-28T02:55:10;53.88;;;23.73;;
25381;SDS011;16307;42.896;20.874;2023-02-28T02:57:59;57.88;;;24.98;;
25381;SDS011;16307;42.896;20.874;2023-02-28T03:00:49;55.97;;;24.80;;
25381;SDS011;16307;42.896;20.874;2023-02-28T03:03:38;56.35;;;24.67;;
25381;SDS011;16307;42.896;20.874;2023-02-28T03:06:25;58.58;;;25.80;;
25381;SDS011;16307;42.896;20.874;2023-02-28T03:09:11;57.42;;;24.23;;
25381;SDS011;16307;42.896;20.874;2023-02-28T03:11:57;58.13;;;23.73;;
25381;SDS011;16307;42.896;20.874;2023-02-28T03:20:46;58.15;;;25.48;;
25381;SDS011;16307;42.896;20.874;2023-02-28T03:26:34;52.03;;;24.40;;
25381;SDS011;16307;42.896;20.874;2023-02-28T03:32:16;58.35;;;25.45;;
25381;SDS011;16307;42.896;20.874;2023-02-28T03:35:22;58.30;;;25.17;;
25381;SDS011;16307;42.896;20.874;2023-02-28T03:38:17;57.30;;;24.95;;
25381;SDS011;16307;42.896;20.874;2023-02-28T03:41:10;59.05;;;24.85;;
25381;SDS011;16307;42.896;20.874;2023-02-28T03:44:04;57.17;;;25.10;;
25381;SDS011;16307;42.896;20.874;2023-02-28T03:46:54;57.95;;;23.27;;
25381;SDS011;16307;42.896;20.874;2023-02-28T03:49:48;58.90;;;23.70;;
25381;SDS011;16307;42.896;20.874;2023-02-28T03:52:38;60.63;;;23.85;;
25381;SDS011;16307;42.896;20.874;2023-02-28T03:55:52;65.50;;;26.38;;
25381;SDS011;16307;42.896;20.874;2023-02-28T03:59:04;62.08;;;25.23;;
25381;SDS011;16307;42.896;20.874;2023-02-28T04:01:53;59.28;;;22.92;;
25381;SDS011;16307;42.896;20.874;2023-02-28T04:04:40;74.47;;;26.25;;
25381;SDS011;16307;42.896;20.874;2023-02-28T04:07:34;56.25;;;24.30;;
25381;SDS011;16307;42.896;20.874;2023-02-28T04:10:20;60.83;;;23.38;;
25381;SDS011;16307;42.896;20.874;2023-02-28T04:13:06;63.20;;;26.40;;
25381;SDS011;16307;42.896;20.874;2023-02-28T04:15:52;62.70;;;25.00;;
25381;SDS011;16307;42.896;20.874;2023-02-28T04:18:38;59.53;;;22.95;;
25381;SDS011;16307;42.896;20.874;2023-02-28T04:21:24;62.67;;;25.38;;
25381;SDS011;16307;42.896;20.874;2023-02-28T04:24:13;65.57;;;24.17;;
25381;SDS011;16307;42.896;20.874;2023-02-28T04:27:01;60.17;;;25.40;;
25381;SDS011;16307;42.896;20.874;2023-02-28T04:29:47;57.28;;;22.75;;
25381;SDS011;16307;42.896;20.874;2023-02-28T04:32:33;60.65;;;25.05;;
25381;SDS011;16307;42.896;20.874;2023-02-28T04:35:19;54.13;;;22.92;;
25381;SDS011;16307;42.896;20.874;2023-02-28T04:38:05;60.42;;;24.38;;
25381;SDS011;16307;42.896;20.874;2023-02-28T04:40:51;61.25;;;25.02;;
25381;SDS011;16307;42.896;20.874;2023-02-28T04:43:37;62.30;;;24.80;;
25381;SDS011;16307;42.896;20.874;2023-02-28T04:46:22;63.00;;;24.48;;
25381;SDS011;16307;42.896;20.874;2023-02-28T04:49:12;57.58;;;22.38;;
25381;SDS011;16307;42.896;20.874;2023-02-28T04:51:58;62.70;;;23.55;;
25381;SDS011;16307;42.896;20.874;2023-02-28T04:54:44;58.42;;;23.13;;
25381;SDS011;16307;42.896;20.874;2023-02-28T04:57:30;55.47;;;23.13;;
25381;SDS011;16307;42.896;20.874;2023-02-28T05:00:16;56.85;;;22.63;;
25381;SDS011;16307;42.896;20.874;2023-02-28T05:03:02;69.10;;;25.13;;
25381;SDS011;16307;42.896;20.874;2023-02-28T05:05:48;61.75;;;24.92;;
25381;SDS011;16307;42.896;20.874;2023-02-28T05:08:34;70.65;;;24.45;;
25381;SDS011;16307;42.896;20.874;2023-02-28T05:11:21;66.72;;;26.73;;
25381;SDS011;16307;42.896;20.874;2023-02-28T05:14:11;66.20;;;25.27;;
25381;SDS011;16307;42.896;20.874;2023-02-28T05:16:58;67.90;;;26.98;;
25381;SDS011;16307;42.896;20.874;2023-02-28T05:19:44;66.97;;;26.90;;
25381;SDS011;16307;42.896;20.874;2023-02-28T05:22:30;65.65;;;25.23;;
25381;SDS011;16307;42.896;20.874;2023-02-28T05:25:17;63.22;;;24.73;;
25381;SDS011;16307;42.896;20.874;2023-02-28T05:28:04;61.30;;;23.85;;
25381;SDS011;16307;42.896;20.874;2023-02-28T05:30:50;70.13;;;28.75;;
25381;SDS011;16307;42.896;20.874;2023-02-28T05:33:36;65.15;;;25.02;;
25381;SDS011;16307;42.896;20.874;2023-02-28T05:36:22;62.40;;;24.92;;
25381;SDS011;16307;42.896;20.874;2023-02-28T05:39:08;59.42;;;23.95;;
25381;SDS011;16307;42.896;20.874;2023-02-28T05:41:58;67.03;;;25.52;;
25381;SDS011;16307;42.896;20.874;2023-02-28T05:44:44;59.72;;;23.83;;
25381;SDS011;16307;42.896;20.874;2023-02-28T05:47:30;68.20;;;24.13;;
25381;SDS011;16307;42.896;20.874;2023-02-28T05:50:17;58.75;;;23.92;;
25381;SDS011;16307;42.896;20.874;2023-02-28T05:53:02;68.93;;;26.50;;
25381;SDS011;16307;42.896;20.874;2023-02-28T05:55:49;74.95;;;25.63;;
25381;SDS011;16307;42.896;20.874;2023-02-28T05:58:35;75.22;;;26.88;;
25381;SDS011;16307;42.896;20.874;2023-02-28T06:01:31;86.95;;;27.40;;
25381;SDS011;16307;42.896;20.874;2023-02-28T06:04:19;75.95;;;26.75;;
25381;SDS011;16307;42.896;20.874;2023-02-28T06:07:16;89.32;;;27.40;;
25381;SDS011;16307;42.896;20.874;2023-02-28T06:10:03;98.90;;;28.17;;
25381;SDS011;16307;42.896;20.874;2023-02-28T06:12:50;86.82;;;27.95;;
25381;SDS011;16307;42.896;20.874;2023-02-28T06:15:35;84.55;;;27.67;;
25381;SDS011;16307;42.896;20.874;2023-02-28T06:18:21;76.65;;;28.98;;
25381;SDS011;16307;42.896;20.874;2023-02-28T06:21:07;58.80;;;25.58;;
25381;SDS011;16307;42.896;20.874;2023-02-28T06:23:55;60.17;;;27.08;;
25381;SDS011;16307;42.896;20.874;2023-02-28T06:26:41;56.53;;;25.17;;
25381;SDS011;16307;42.896;20.874;2023-02-28T06:29:27;59.42;;;27.45;;
25381;SDS011;16307;42.896;20.874;2023-02-28T06:32:13;62.92;;;26.85;;
25381;SDS011;16307;42.896;20.874;2023-02-28T06:34:59;63.70;;;26.80;;
25381;SDS011;16307;42.896;20.874;2023-02-28T06:37:45;53.30;;;24.05;;
25381;SDS011;16307;42.896;20.874;2023-02-28T06:40:32;56.42;;;25.05;;
25381;SDS011;16307;42.896;20.874;2023-02-28T06:43:20;51.50;;;22.58;;
25381;SDS011;16307;42.896;20.874;2023-02-28T06:46:07;52.83;;;23.42;;
25381;SDS011;16307;42.896;20.874;2023-02-28T06:48:54;50.00;;;22.27;;
25381;SDS011;16307;42.896;20.874;2023-02-28T06:51:41;57.58;;;24.30;;
25381;SDS011;16307;42.896;20.874;2023-02-28T06:54:30;51.30;;;23.15;;
25381;SDS011;16307;42.896;20.874;2023-02-28T06:57:16;55.00;;;23.85;;
25381;SDS011;16307;42.896;20.874;2023-02-28T07:00:06;55.03;;;22.75;;
25381;SDS011;16307;42.896;20.874;2023-02-28T07:02:54;57.00;;;23.65;;
25381;SDS011;16307;42.896;20.874;2023-02-28T07:05:40;50.90;;;23.45;;
25381;SDS011;16307;42.896;20.874;2023-02-28T07:08:26;57.97;;;23.65;;
25381;SDS011;16307;42.896;20.874;2023-02-28T07:11:13;63.72;;;26.23;;
25381;SDS011;16307;42.896;20.874;2023-02-28T07:13:58;57.58;;;23.80;;
25381;SDS011;16307;42.896;20.874;2023-02-28T07:16:44;59.00;;;25.58;;
25381;SDS011;16307;42.896;20.874;2023-02-28T07:19:31;68.32;;;26.88;;
25381;SDS011;16307;42.896;20.874;2023-02-28T07:22:16;63.97;;;24.65;;
25381;SDS011;16307;42.896;20.874;2023-02-28T07:25:02;66.90;;;27.88;;
25381;SDS011;16307;42.896;20.874;2023-02-28T07:27:49;72.50;;;27.60;;
25381;SDS011;16307;42.896;20.874;2023-02-28T07:30:35;84.70;;;29.52;;
25381;SDS011;16307;42.896;20.874;2023-02-28T07:33:21;72.97;;;27.70;;
25381;SDS011;16307;42.896;20.874;2023-02-28T07:36:08;78.57;;;29.52;;
25381;SDS011;16307;42.896;20.874;2023-02-28T07:39:02;70.60;;;24.80;;
25381;SDS011;16307;42.896;20.874;2023-02-28T07:41:49;76.07;;;26.77;;
25381;SDS011;16307;42.896;20.874;2023-02-28T07:44:36;67.75;;;27.85;;
25381;SDS011;16307;42.896;20.874;2023-02-28T07:47:26;63.22;;;28.33;;
25381;SDS011;16307;42.896;20.874;2023-02-28T07:50:13;68.40;;;28.38;;
25381;SDS011;16307;42.896;20.874;2023-02-28T07:53:00;67.55;;;27.05;;
25381;SDS011;16307;42.896;20.874;2023-02-28T07:55:46;70.43;;;28.17;;
25381;SDS011;16307;42.896;20.874;2023-02-28T07:58:32;67.10;;;27.95;;
25381;SDS011;16307;42.896;20.874;2023-02-28T08:01:18;71.30;;;28.30;;
25381;SDS011;16307;42.896;20.874;2023-02-28T08:04:05;59.90;;;25.98;;
25381;SDS011;16307;42.896;20.874;2023-02-28T08:06:50;63.80;;;28.42;;
25381;SDS011;16307;42.896;20.874;2023-02-28T08:09:40;67.28;;;28.73;;
25381;SDS011;16307;42.896;20.874;2023-02-28T08:12:26;78.85;;;31.33;;
25381;SDS011;16307;42.896;20.874;2023-02-28T08:15:12;83.22;;;34.97;;
25381;SDS011;16307;42.896;20.874;2023-02-28T08:17:58;81.20;;;34.47;;
25381;SDS011;16307;42.896;20.874;2023-02-28T08:20:44;80.88;;;33.83;;
25381;SDS011;16307;42.896;20.874;2023-02-28T08:23:30;82.68;;;34.03;;
25381;SDS011;16307;42.896;20.874;2023-02-28T08:26:16;87.43;;;35.20;;
25381;SDS011;16307;42.896;20.874;2023-02-28T08:29:03;94.85;;;37.85;;
25381;SDS011;16307;42.896;20.874;2023-02-28T08:31:49;98.38;;;38.67;;
25381;SDS011;16307;42.896;20.874;2023-02-28T08:34:35;90.50;;;37.95;;
25381;SDS011;16307;42.896;20.874;2023-02-28T08:37:21;86.18;;;35.83;;
25381;SDS011;16307;42.896;20.874;2023-02-28T08:40:07;86.85;;;37.47;;
25381;SDS011;16307;42.896;20.874;2023-02-28T08:42:54;96.22;;;40.03;;
25381;SDS011;16307;42.896;20.874;2023-02-28T08:45:40;111.90;;;46.15;;
25381;SDS011;16307;42.896;20.874;2023-02-28T08:48:26;92.32;;;38.05;;
25381;SDS011;16307;42.896;20.874;2023-02-28T08:51:15;96.05;;;40.13;;
25381;SDS011;16307;42.896;20.874;2023-02-28T08:54:07;87.90;;;36.55;;
25381;SDS011;16307;42.896;20.874;2023-02-28T08:56:53;90.85;;;36.72;;
25381;SDS011;16307;42.896;20.874;2023-02-28T08:59:39;96.88;;;41.33;;
25381;SDS011;16307;42.896;20.874;2023-02-28T09:02:25;88.55;;;36.35;;
25381;SDS011;16307;42.896;20.874;2023-02-28T09:05:11;99.15;;;37.20;;
25381;SDS011;16307;42.896;20.874;2023-02-28T09:07:57;101.53;;;40.03;;
25381;SDS011;16307;42.896;20.874;2023-02-28T09:10:43;107.00;;;41.53;;
25381;SDS011;16307;42.896;20.874;2023-02-28T09:13:29;111.80;;;46.80;;
25381;SDS011;16307;42.896;20.874;2023-02-28T09:16:16;103.72;;;41.88;;
25381;SDS011;16307;42.896;20.874;2023-02-28T09:19:02;100.65;;;42.83;;
25381;SDS011;16307;42.896;20.874;2023-02-28T09:21:48;120.13;;;47.88;;
25381;SDS011;16307;42.896;20.874;2023-02-28T09:24:35;107.65;;;42.20;;
25381;SDS011;16307;42.896;20.874;2023-02-28T09:27:21;103.80;;;44.97;;
25381;SDS011;16307;42.896;20.874;2023-02-28T09:30:07;121.00;;;48.20;;
25381;SDS011;16307;42.896;20.874;2023-02-28T09:32:53;105.30;;;44.00;;
25381;SDS011;16307;42.896;20.874;2023-02-28T09:35:40;105.38;;;43.42;;
25381;SDS011;16307;42.896;20.874;2023-02-28T09:38:26;113.50;;;45.85;;
25381;SDS011;16307;42.896;20.874;2023-02-28T09:41:15;102.10;;;42.42;;
25381;SDS011;16307;42.896;20.874;2023-02-28T09:44:02;110.78;;;42.70;;
25381;SDS011;16307;42.896;20.874;2023-02-28T09:46:50;90.85;;;37.15;;
25381;SDS011;16307;42.896;20.874;2023-02-28T09:49:44;103.43;;;43.72;;
25381;SDS011;16307;42.896;20.874;2023-02-28T09:55:19;89.60;;;34.53;;
25381;SDS011;16307;42.896;20.874;2023-02-28T09:58:22;90.80;;;34.05;;
25381;SDS011;16307;42.896;20.874;2023-02-28T10:04:18;86.60;;;33.72;;
25381;SDS011;16307;42.896;20.874;2023-02-28T10:13:34;85.80;;;35.25;;
25381;SDS011;16307;42.896;20.874;2023-02-28T10:22:52;82.88;;;36.75;;
25381;SDS011;16307;42.896;20.874;2023-02-28T10:25:40;82.38;;;35.80;;
25381;SDS011;16307;42.896;20.874;2023-02-28T10:28:33;75.65;;;33.47;;
25381;SDS011;16307;42.896;20.874;2023-02-28T10:31:20;71.57;;;29.65;;
25381;SDS011;16307;42.896;20.874;2023-02-28T10:34:07;75.03;;;29.98;;
25381;SDS011;16307;42.896;20.874;2023-02-28T10:36:54;73.70;;;30.63;;
25381;SDS011;16307;42.896;20.874;2023-02-28T10:39:42;74.18;;;32.30;;
25381;SDS011;16307;42.896;20.874;2023-02-28T10:42:29;78.80;;;32.60;;
25381;SDS011;16307;42.896;20.874;2023-02-28T10:45:16;69.15;;;29.75;;
25381;SDS011;16307;42.896;20.874;2023-02-28T10:51:01;74.80;;;30.75;;
25381;SDS011;16307;42.896;20.874;2023-02-28T10:53:50;77.20;;;33.60;;
25381;SDS011;16307;42.896;20.874;2023-02-28T10:56:45;83.57;;;32.63;;
25381;SDS011;16307;42.896;20.874;2023-02-28T10:59:31;87.30;;;34.42;;
25381;SDS011;16307;42.896;20.874;2023-02-28T11:02:34;81.13;;;33.50;;
25381;SDS011;16307;42.896;20.874;2023-02-28T11:08:16;65.55;;;30.33;;
25381;SDS011;16307;42.896;20.874;2023-02-28T11:11:04;72.68;;;29.38;;
25381;SDS011;16307;42.896;20.874;2023-02-28T11:13:52;67.38;;;30.10;;
25381;SDS011;16307;42.896;20.874;2023-02-28T11:16:39;70.03;;;28.38;;
25381;SDS011;16307;42.896;20.874;2023-02-28T11:19:26;62.13;;;26.92;;
25381;SDS011;16307;42.896;20.874;2023-02-28T11:22:21;69.65;;;26.35;;
25381;SDS011;16307;42.896;20.874;2023-02-28T11:25:31;63.80;;;27.63;;
25381;SDS011;16307;42.896;20.874;2023-02-28T11:28:24;75.15;;;30.70;;
25381;SDS011;16307;42.896;20.874;2023-02-28T11:33:56;67.63;;;29.75;;
25381;SDS011;16307;42.896;20.874;2023-02-28T11:36:42;80.93;;;32.03;;
25381;SDS011;16307;42.896;20.874;2023-02-28T11:39:30;66.30;;;27.63;;
25381;SDS011;16307;42.896;20.874;2023-02-28T11:51:43;66.05;;;28.60;;
25381;SDS011;16307;42.896;20.874;2023-02-28T12:00:45;84.72;;;33.53;;
25381;SDS011;16307;42.896;20.874;2023-02-28T12:04:11;77.43;;;32.33;;
25381;SDS011;16307;42.896;20.874;2023-02-28T12:07:09;70.70;;;32.40;;
25381;SDS011;16307;42.896;20.874;2023-02-28T12:10:06;79.72;;;32.30;;
25381;SDS011;16307;42.896;20.874;2023-02-28T12:13:04;81.60;;;34.00;;
25381;SDS011;16307;42.896;20.874;2023-02-28T12:15:57;76.25;;;31.50;;
25381;SDS011;16307;42.896;20.874;2023-02-28T12:27:52;86.40;;;33.72;;
25381;SDS011;16307;42.896;20.874;2023-02-28T12:30:45;77.82;;;32.30;;
25381;SDS011;16307;42.896;20.874;2023-02-28T12:33:36;76.07;;;33.30;;
25381;SDS011;16307;42.896;20.874;2023-02-28T12:36:28;89.43;;;38.53;;
25381;SDS011;16307;42.896;20.874;2023-02-28T12:51:33;97.03;;;41.42;;
25381;SDS011;16307;42.896;20.874;2023-02-28T12:54:25;89.18;;;37.42;;
25381;SDS011;16307;42.896;20.874;2023-02-28T12:57:22;98.05;;;37.95;;
25381;SDS011;16307;42.896;20.874;2023-02-28T13:00:33;91.90;;;37.67;;
25381;SDS011;16307;42.896;20.874;2023-02-28T13:03:41;90.32;;;35.13;;
25381;SDS011;16307;42.896;20.874;2023-02-28T13:09:32;86.35;;;34.60;;
25381;SDS011;16307;42.896;20.874;2023-02-28T13:12:18;77.20;;;31.88;;
25381;SDS011;16307;42.896;20.874;2023-02-28T13:15:27;78.22;;;30.75;;
25381;SDS011;16307;42.896;20.874;2023-02-28T13:18:48;72.90;;;28.90;;
25381;SDS011;16307;42.896;20.874;2023-02-28T13:21:30;68.82;;;28.85;;
25381;SDS011;16307;42.896;20.874;2023-02-28T13:24:38;73.53;;;32.20;;
25381;SDS011;16307;42.896;20.874;2023-02-28T13:34:05;82.38;;;34.30;;
25381;SDS011;16307;42.896;20.874;2023-02-28T13:40:28;63.47;;;27.63;;
25381;SDS011;16307;42.896;20.874;2023-02-28T13:43:23;66.38;;;29.48;;
25381;SDS011;16307;42.896;20.874;2023-02-28T13:49:47;59.33;;;25.95;;
25381;SDS011;16307;42.896;20.874;2023-02-28T13:52:33;52.40;;;23.98;;
25381;SDS011;16307;42.896;20.874;2023-02-28T13:55:24;59.80;;;25.60;;
25381;SDS011;16307;42.896;20.874;2023-02-28T14:07:26;92.65;;;40.15;;
25381;SDS011;16307;42.896;20.874;2023-02-28T14:10:29;73.07;;;31.73;;
25381;SDS011;16307;42.896;20.874;2023-02-28T14:16:13;68.50;;;30.95;;
25381;SDS011;16307;42.896;20.874;2023-02-28T14:25:33;72.18;;;32.05;;
25381;SDS011;16307;42.896;20.874;2023-02-28T14:31:37;75.47;;;32.22;;
25381;SDS011;16307;42.896;20.874;2023-02-28T14:37:51;66.43;;;26.83;;
25381;SDS011;16307;42.896;20.874;2023-02-28T14:40:38;79.65;;;35.45;;
25381;SDS011;16307;42.896;20.874;2023-02-28T14:43:26;72.97;;;32.65;;
25381;SDS011;16307;42.896;20.874;2023-02-28T14:46:13;77.68;;;35.92;;
25381;SDS011;16307;42.896;20.874;2023-02-28T14:48:59;80.68;;;35.38;;
25381;SDS011;16307;42.896;20.874;2023-02-28T14:51:46;76.65;;;35.08;;
25381;SDS011;16307;42.896;20.874;2023-02-28T14:54:34;72.60;;;33.70;;
25381;SDS011;16307;42.896;20.874;2023-02-28T14:57:22;70.20;;;32.55;;
25381;SDS011;16307;42.896;20.874;2023-02-28T15:00:14;74.97;;;33.45;;
25381;SDS011;16307;42.896;20.874;2023-02-28T15:03:20;83.03;;;34.90;;
25381;SDS011;16307;42.896;20.874;2023-02-28T15:06:14;78.43;;;35.35;;
25381;SDS011;16307;42.896;20.874;2023-02-28T15:09:10;73.63;;;34.47;;
25381;SDS011;16307;42.896;20.874;2023-02-28T15:12:01;90.05;;;36.25;;
25381;SDS011;16307;42.896;20.874;2023-02-28T15:14:48;87.15;;;34.45;;
25381;SDS011;16307;42.896;20.874;2023-02-28T15:17:37;79.78;;;33.35;;
25381;SDS011;16307;42.896;20.874;2023-02-28T15:20:22;79.47;;;34.08;;
25381;SDS011;16307;42.896;20.874;2023-02-28T15:23:10;80.97;;;33.40;;
25381;SDS011;16307;42.896;20.874;2023-02-28T15:25:56;73.22;;;32.35;;
25381;SDS011;16307;42.896;20.874;2023-02-28T15:28:43;72.95;;;31.23;;
25381;SDS011;16307;42.896;20.874;2023-02-28T15:31:34;69.93;;;30.65;;
25381;SDS011;16307;42.896;20.874;2023-02-28T15:34:42;72.70;;;29.67;;
25381;SDS011;16307;42.896;20.874;2023-02-28T15:43:15;84.53;;;34.73;;
25381;SDS011;16307;42.896;20.874;2023-02-28T15:46:06;75.53;;;30.52;;
25381;SDS011;16307;42.896;20.874;2023-02-28T15:48:55;63.22;;;28.05;;
25381;SDS011;16307;42.896;20.874;2023-02-28T15:51:42;65.85;;;24.35;;
25381;SDS011;16307;42.896;20.874;2023-02-28T15:54:34;57.25;;;24.95;;
25381;SDS011;16307;42.896;20.874;2023-02-28T15:57:21;53.85;;;23.13;;
25381;SDS011;16307;42.896;20.874;2023-02-28T16:00:11;58.03;;;23.05;;
25381;SDS011;16307;42.896;20.874;2023-02-28T16:03:00;46.58;;;23.17;;
25381;SDS011;16307;42.896;20.874;2023-02-28T16:05:46;57.75;;;24.08;;
25381;SDS011;16307;42.896;20.874;2023-02-28T16:08:55;51.53;;;21.58;;
25381;SDS011;16307;42.896;20.874;2023-02-28T16:11:45;56.85;;;21.67;;
25381;SDS011;16307;42.896;20.874;2023-02-28T16:14:33;52.50;;;22.45;;
25381;SDS011;16307;42.896;20.874;2023-02-28T16:17:27;59.70;;;23.00;;
25381;SDS011;16307;42.896;20.874;2023-02-28T16:20:26;44.03;;;19.13;;
25381;SDS011;16307;42.896;20.874;2023-02-28T16:23:13;49.90;;;19.98;;
25381;SDS011;16307;42.896;20.874;2023-02-28T16:25:59;53.42;;;22.73;;
25381;SDS011;16307;42.896;20.874;2023-02-28T16:28:45;50.13;;;20.10;;
25381;SDS011;16307;42.896;20.874;2023-02-28T16:31:35;63.50;;;22.65;;
25381;SDS011;16307;42.896;20.874;2023-02-28T16:34:23;56.28;;;22.88;;
25381;SDS011;16307;42.896;20.874;2023-02-28T16:37:10;60.25;;;26.40;;
25381;SDS011;16307;42.896;20.874;2023-02-28T16:39:58;70.25;;;26.63;;
25381;SDS011;16307;42.896;20.874;2023-02-28T16:42:44;67.25;;;28.02;;
25381;SDS011;16307;42.896;20.874;2023-02-28T16:45:31;60.92;;;23.00;;
25381;SDS011;16307;42.896;20.874;2023-02-28T16:48:17;51.22;;;23.67;;
25381;SDS011;16307;42.896;20.874;2023-02-28T16:51:03;60.00;;;24.83;;
25381;SDS011;16307;42.896;20.874;2023-02-28T16:53:50;59.20;;;24.20;;
25381;SDS011;16307;42.896;20.874;2023-02-28T16:56:36;53.75;;;24.50;;
25381;SDS011;16307;42.896;20.874;2023-02-28T16:59:24;56.40;;;22.33;;
25381;SDS011;16307;42.896;20.874;2023-02-28T17:02:13;70.00;;;26.27;;
25381;SDS011;16307;42.896;20.874;2023-02-28T17:05:02;60.90;;;24.83;;
25381;SDS011;16307;42.896;20.874;2023-02-28T17:07:48;65.80;;;27.08;;
25381;SDS011;16307;42.896;20.874;2023-02-28T17:10:35;69.20;;;26.05;;
25381;SDS011;16307;42.896;20.874;2023-02-28T17:13:21;58.55;;;25.48;;
25381;SDS011;16307;42.896;20.874;2023-02-28T17:16:17;82.50;;;28.98;;
25381;SDS011;16307;42.896;20.874;2023-02-28T17:19:15;72.65;;;25.88;;
25381;SDS011;16307;42.896;20.874;2023-02-28T17:22:02;58.88;;;23.60;;
25381;SDS011;16307;42.896;20.874;2023-02-28T17:24:48;62.22;;;22.27;;
25381;SDS011;16307;42.896;20.874;2023-02-28T17:27:34;67.93;;;27.30;;
25381;SDS011;16307;42.896;20.874;2023-02-28T17:30:22;61.22;;;26.52;;
25381;SDS011;16307;42.896;20.874;2023-02-28T17:33:09;69.97;;;25.60;;
25381;SDS011;16307;42.896;20.874;2023-02-28T17:35:55;63.92;;;27.42;;
25381;SDS011;16307;42.896;20.874;2023-02-28T17:38:42;64.50;;;26.55;;
25381;SDS011;16307;42.896;20.874;2023-02-28T17:41:28;62.30;;;22.33;;
25381;SDS011;16307;42.896;20.874;2023-02-28T17:44:18;52.70;;;21.70;;
25381;SDS011;16307;42.896;20.874;2023-02-28T17:47:04;53.10;;;22.33;;
25381;SDS011;16307;42.896;20.874;2023-02-28T17:49:50;54.72;;;21.00;;
25381;SDS011;16307;42.896;20.874;2023-02-28T17:52:36;69.80;;;27.50;;
25381;SDS011;16307;42.896;20.874;2023-02-28T17:55:23;51.88;;;21.58;;
25381;SDS011;16307;42.896;20.874;2023-02-28T17:58:10;49.40;;;20.35;;
25381;SDS011;16307;42.896;20.874;2023-02-28T18:00:57;60.63;;;22.38;;
25381;SDS011;16307;42.896;20.874;2023-02-28T18:03:43;52.13;;;22.60;;
25381;SDS011;16307;42.896;20.874;2023-02-28T18:06:40;46.20;;;18.33;;
25381;SDS011;16307;42.896;20.874;2023-02-28T18:09:35;57.13;;;20.77;;
25381;SDS011;16307;42.896;20.874;2023-02-28T18:12:22;55.92;;;19.52;;
25381;SDS011;16307;42.896;20.874;2023-02-28T18:15:09;52.67;;;18.45;;
25381;SDS011;16307;42.896;20.874;2023-02-28T18:17:55;58.35;;;23.15;;
25381;SDS011;16307;42.896;20.874;2023-02-28T18:20:41;54.42;;;21.05;;
25381;SDS011;16307;42.896;20.874;2023-02-28T18:23:27;61.35;;;21.17;;
25381;SDS011;16307;42.896;20.874;2023-02-28T18:26:14;53.80;;;21.67;;
25381;SDS011;16307;42.896;20.874;2023-02-28T18:29:01;55.08;;;21.00;;
25381;SDS011;16307;42.896;20.874;2023-02-28T18:31:48;48.15;;;21.05;;
25381;SDS011;16307;42.896;20.874;2023-02-28T18:34:34;50.60;;;21.23;;
25381;SDS011;16307;42.896;20.874;2023-02-28T18:37:20;81.38;;;25.35;;
25381;SDS011;16307;42.896;20.874;2023-02-28T18:40:06;61.97;;;22.92;;